createdAt,value
2023-02-18T00:01:53.415Z,99773.60
2023-02-18T00:04:21.126Z,99784.20
2023-02-18T00:06:49.084Z,99778.00
2023-02-18T00:09:17.007Z,99785.80
2023-02-18T00:11:47.075Z,99798.40
2023-02-18T00:14:17.515Z,99801.80
2023-02-18T00:16:47.415Z,99803.40
2023-02-18T00:19:19.145Z,99809.00
2023-02-18T00:21:47.817Z,99808.00
2023-02-18T00:24:17.677Z,99814.20
2023-02-18T00:26:49.882Z,99824.40
2023-02-18T00:29:18.491Z,99825.00
2023-02-18T00:31:46.427Z,99831.80
2023-02-18T00:34:14.389Z,99834.60
2023-02-18T00:36:42.888Z,99842.80
2023-02-18T00:39:12.783Z,99855.20
2023-02-18T00:41:43.272Z,99859.40
2023-02-18T00:44:13.068Z,99860.20
2023-02-18T00:46:41.229Z,99858.80
2023-02-18T00:49:10.360Z,99856.20
2023-02-18T00:51:38.680Z,99864.80
2023-02-18T00:54:06.682Z,99873.40
2023-02-18T00:56:35.234Z,99891.60
2023-02-18T00:59:03.868Z,99900.80
2023-02-18T01:01:31.911Z,99902.20
2023-02-18T01:04:01.702Z,99899.80
2023-02-18T01:06:29.564Z,99913.00
2023-02-18T01:08:57.390Z,99924.20
2023-02-18T01:11:25.267Z,99942.40
2023-02-18T01:13:53.908Z,99933.60
2023-02-18T01:16:22.564Z,99959.00
2023-02-18T01:18:50.771Z,99963.60
2023-02-18T01:21:18.685Z,99967.60
2023-02-18T01:23:46.503Z,99959.40
2023-02-18T01:26:14.424Z,99959.40
2023-02-18T01:28:42.204Z,99965.00
2023-02-18T01:31:13.918Z,99969.20
2023-02-18T01:33:42.814Z,99969.20
2023-02-18T01:36:12.023Z,99969.80
2023-02-18T01:38:43.027Z,99970.40
2023-02-18T01:41:11.585Z,99974.80
2023-02-18T01:43:40.414Z,99974.20
2023-02-18T01:46:22.127Z,99983.60
2023-02-18T01:49:01.370Z,99974.20
2023-02-18T01:51:37.682Z,99970.80
2023-02-18T01:54:52.305Z,99975.00
2023-02-18T01:57:25.758Z,99968.60
2023-02-18T02:00:06.431Z,99977.20
2023-02-18T02:02:42.372Z,99968.20
2023-02-18T02:05:10.986Z,99963.00
2023-02-18T02:07:42.908Z,99965.20
2023-02-18T02:10:14.832Z,99961.40
2023-02-18T02:13:15.450Z,99970.60
2023-02-18T02:16:11.091Z,99976.00
2023-02-18T02:19:10.273Z,99989.00
2023-02-18T02:21:59.003Z,99995.40
2023-02-18T02:25:07.627Z,100008.40
2023-02-18T02:28:34.719Z,100004.20
2023-02-18T02:31:32.579Z,100011.40
2023-02-18T02:34:29.276Z,100013.20
2023-02-18T02:37:16.672Z,100017.20
2023-02-18T02:40:26.091Z,100015.60
2023-02-18T02:43:29.717Z,100024.00
2023-02-18T02:46:16.011Z,100030.20
2023-02-18T02:48:50.360Z,100031.00
2023-02-18T02:51:40.084Z,100031.40
2023-02-18T02:54:20.438Z,100032.60
2023-02-18T02:56:49.749Z,100042.20
2023-02-18T02:59:26.005Z,100046.20
2023-02-18T03:02:12.125Z,100040.80
2023-02-18T03:05:15.295Z,100036.60
2023-02-18T03:08:31.643Z,100038.60
2023-02-18T03:11:11.853Z,100042.60
2023-02-18T03:14:15.755Z,100043.60
2023-02-18T03:17:15.732Z,100051.40
2023-02-18T03:19:53.105Z,100046.60
2023-02-18T03:22:30.680Z,100048.00
2023-02-18T03:25:00.485Z,100050.60
2023-02-18T03:27:41.054Z,100062.20
2023-02-18T03:30:23.020Z,100073.20
2023-02-18T03:32:59.072Z,100081.60
2023-02-18T03:35:28.483Z,100078.20
2023-02-18T03:38:15.406Z,100090.00
2023-02-18T03:40:44.214Z,100093.60
2023-02-18T03:43:11.872Z,100105.40
2023-02-18T03:45:40.168Z,100110.20
2023-02-18T03:48:08.265Z,100118.60
2023-02-18T03:50:36.045Z,100122.60
2023-02-18T03:53:03.834Z,100118.20
2023-02-18T03:55:31.590Z,100124.20
2023-02-18T03:58:00.898Z,100135.20
2023-02-18T04:00:28.631Z,100141.40
2023-02-18T04:02:56.293Z,100141.60
2023-02-18T04:05:24.504Z,100136.00
2023-02-18T04:07:53.687Z,100133.20
2023-02-18T04:10:23.136Z,100137.80
2023-02-18T04:12:50.852Z,100140.00
2023-02-18T04:15:18.837Z,100137.20
2023-02-18T04:17:48.936Z,100140.00
2023-02-18T04:20:16.985Z,100141.40
2023-02-18T04:22:47.847Z,100139.20
2023-02-18T04:25:16.141Z,100142.00
2023-02-18T04:27:44.728Z,100144.20
2023-02-18T04:30:12.941Z,100145.00
2023-02-18T04:32:40.898Z,100148.00
2023-02-18T04:35:08.872Z,100153.80
2023-02-18T04:37:37.614Z,100148.60
2023-02-18T04:40:07.208Z,100147.80
2023-02-18T04:42:35.522Z,100157.60
2023-02-18T04:45:04.061Z,100158.80
2023-02-18T04:47:32.648Z,100162.00
2023-02-18T04:50:01.891Z,100160.60
2023-02-18T04:52:29.635Z,100154.00
2023-02-18T04:54:57.312Z,100167.20
2023-02-18T04:57:25.384Z,100169.60
2023-02-18T04:59:53.216Z,100173.20
2023-02-18T05:02:20.981Z,100171.40
2023-02-18T05:04:53.085Z,100168.40
2023-02-18T05:07:20.815Z,100174.40
2023-02-18T05:09:49.063Z,100168.00
2023-02-18T05:12:17.212Z,100171.40
2023-02-18T05:14:45.023Z,100171.80
2023-02-18T05:17:12.685Z,100173.80
2023-02-18T05:19:41.760Z,100177.80
2023-02-18T05:22:09.740Z,100185.00
2023-02-18T05:24:37.438Z,100183.60
2023-02-18T05:27:05.186Z,100183.20
2023-02-18T05:29:37.529Z,100191.40
2023-02-18T05:32:05.748Z,100188.20
2023-02-18T05:34:33.596Z,100195.00
2023-02-18T05:37:01.658Z,100199.20
2023-02-18T05:39:30.490Z,100194.60
2023-02-18T05:41:58.166Z,100192.80
2023-02-18T05:44:32.646Z,100197.80
2023-02-18T05:47:02.967Z,100199.20
2023-02-18T05:49:33.091Z,100205.60
2023-02-18T05:52:01.191Z,100215.40
2023-02-18T05:54:29.530Z,100212.20
2023-02-18T05:56:59.694Z,100211.20
2023-02-18T05:59:27.942Z,100218.60
2023-02-18T06:01:56.193Z,100211.40
2023-02-18T06:04:25.008Z,100210.20
2023-02-18T06:06:54.965Z,100214.20
2023-02-18T06:09:22.768Z,100213.00
2023-02-18T06:11:51.589Z,100212.60
2023-02-18T06:14:19.628Z,100208.60
2023-02-18T06:16:47.394Z,100208.60
2023-02-18T06:19:16.857Z,100218.20
2023-02-18T06:21:44.700Z,100215.20
2023-02-18T06:24:12.485Z,100212.00
2023-02-18T06:26:40.709Z,100207.80
2023-02-18T06:29:08.443Z,100207.40
2023-02-18T06:31:37.976Z,100212.40
2023-02-18T06:34:06.453Z,100213.80
2023-02-18T06:36:34.580Z,100212.60
2023-02-18T06:39:06.381Z,100217.60
2023-02-18T06:41:35.146Z,100224.20
2023-02-18T06:44:03.443Z,100223.00
2023-02-18T06:46:32.417Z,100227.20
2023-02-18T06:49:00.397Z,100224.80
2023-02-18T06:51:28.233Z,100219.40
2023-02-18T06:53:56.654Z,100215.80
2023-02-18T06:56:24.582Z,100217.80
2023-02-18T06:58:52.352Z,100212.40
2023-02-18T07:01:20.067Z,100221.60
2023-02-18T07:03:50.182Z,100218.80
2023-02-18T07:06:18.951Z,100223.60
2023-02-18T07:08:46.818Z,100223.40
2023-02-18T07:11:16.229Z,100227.20
2023-02-18T07:13:43.900Z,100228.40
2023-02-18T07:16:12.149Z,100229.20
2023-02-18T07:18:40.264Z,100232.20
2023-02-18T07:21:08.756Z,100230.80
2023-02-18T07:23:36.464Z,100234.20
2023-02-18T07:26:11.136Z,100233.60
2023-02-18T07:28:40.981Z,100229.20
2023-02-18T07:31:10.018Z,100236.40
2023-02-18T07:33:38.018Z,100237.20
2023-02-18T07:36:07.372Z,100237.20
2023-02-18T07:38:37.686Z,100245.00
2023-02-18T07:41:06.988Z,100244.40
2023-02-18T07:43:34.715Z,100238.20
2023-02-18T07:46:07.242Z,100242.40
2023-02-18T07:48:36.053Z,100249.80
2023-02-18T07:51:09.510Z,100257.60
2023-02-18T07:53:38.494Z,100259.80
2023-02-18T07:56:07.109Z,100255.00
2023-02-18T07:58:38.383Z,100269.00
2023-02-18T08:01:13.186Z,100274.40
2023-02-18T08:03:42.447Z,100279.00
2023-02-18T08:06:37.170Z,100268.00
2023-02-18T08:09:21.010Z,100260.80
2023-02-18T08:11:49.220Z,100268.00
2023-02-18T08:14:17.119Z,100270.20
2023-02-18T08:16:44.932Z,100279.20
2023-02-18T08:19:13.383Z,100280.40
2023-02-18T08:21:43.706Z,100287.40
2023-02-18T08:24:11.574Z,100282.60
2023-02-18T08:26:46.142Z,100281.80
2023-02-18T08:29:26.203Z,100288.40
2023-02-18T08:32:04.043Z,100288.40
2023-02-18T08:34:32.428Z,100296.40
2023-02-18T08:37:03.097Z,100301.40
2023-02-18T08:39:39.784Z,100310.20
2023-02-18T08:42:08.955Z,100319.80
2023-02-18T08:44:36.690Z,100325.40
2023-02-18T08:47:04.963Z,100327.00
2023-02-18T08:49:54.707Z,100335.00
2023-02-18T08:52:22.943Z,100340.00
2023-02-18T08:54:51.318Z,100343.80
2023-02-18T08:57:21.751Z,100348.20
2023-02-18T08:59:51.737Z,100347.20
2023-02-18T09:02:19.672Z,100349.60
2023-02-18T09:04:49.286Z,100353.40
2023-02-18T09:07:17.144Z,100358.60
2023-02-18T09:09:45.648Z,100363.40
2023-02-18T09:12:16.141Z,100371.00
2023-02-18T09:14:43.859Z,100381.00
2023-02-18T09:17:11.913Z,100385.40
2023-02-18T09:19:40.963Z,100388.80
2023-02-18T09:22:10.615Z,100391.60
2023-02-18T09:24:40.602Z,100399.20
2023-02-18T09:27:11.187Z,100399.20
2023-02-18T09:29:41.238Z,100398.60
2023-02-18T09:32:09.418Z,100411.20
2023-02-18T09:34:37.487Z,100414.00
2023-02-18T09:37:08.136Z,100415.60
2023-02-18T09:39:37.129Z,100418.80
2023-02-18T09:42:14.826Z,100425.00
2023-02-18T09:44:54.325Z,100420.80
2023-02-18T09:47:36.273Z,100432.60
2023-02-18T09:50:37.634Z,100432.40
2023-02-18T09:53:06.207Z,100444.60
2023-02-18T09:55:41.170Z,100449.40
2023-02-18T09:58:19.943Z,100453.20
2023-02-18T10:00:54.423Z,100460.80
2023-02-18T10:03:27.329Z,100461.00
2023-02-18T10:06:03.337Z,100464.00
2023-02-18T10:08:46.009Z,100470.20
2023-02-18T10:11:27.913Z,100479.60
2023-02-18T10:14:03.678Z,100485.40
2023-02-18T10:16:31.791Z,100491.60
2023-02-18T10:19:12.596Z,100492.80
2023-02-18T10:21:41.975Z,100497.20
2023-02-18T10:24:28.764Z,100504.00
2023-02-18T10:26:58.530Z,100500.40
2023-02-18T10:29:31.097Z,100503.80
2023-02-18T10:32:28.258Z,100509.40
2023-02-18T10:35:25.711Z,100507.80
2023-02-18T10:38:15.031Z,100510.00
2023-02-18T10:41:19.734Z,100511.20
2023-02-18T10:44:08.281Z,100522.60
2023-02-18T10:47:00.577Z,100535.00
2023-02-18T10:50:02.310Z,100530.00
2023-02-18T10:52:36.696Z,100535.40
2023-02-18T10:55:12.868Z,100537.20
2023-02-18T10:57:55.864Z,100534.60
2023-02-18T11:00:28.162Z,100530.60
2023-02-18T11:03:41.034Z,100531.40
2023-02-18T11:06:32.875Z,100528.60
2023-02-18T11:09:02.113Z,100519.60
2023-02-18T11:11:42.778Z,100537.60
2023-02-18T11:14:40.204Z,100536.80
2023-02-18T11:17:38.803Z,100532.60
2023-02-18T11:20:37.216Z,100533.60
2023-02-18T11:23:08.064Z,100534.00
2023-02-18T11:25:40.508Z,100536.40
2023-02-18T11:28:13.826Z,100533.00
2023-02-18T11:30:53.484Z,100532.60
2023-02-18T11:33:41.304Z,100541.40
2023-02-18T11:36:27.307Z,100542.40
2023-02-18T11:39:24.542Z,100544.40
2023-02-18T11:42:06.756Z,100535.00
2023-02-18T11:44:41.164Z,100541.00
2023-02-18T11:47:22.608Z,100537.20
2023-02-18T11:50:09.080Z,100542.60
2023-02-18T11:52:40.557Z,100544.00
2023-02-18T11:55:18.727Z,100544.80
2023-02-18T11:58:02.740Z,100544.60
2023-02-18T12:00:56.920Z,100543.60
2023-02-18T12:04:12.994Z,100533.20
2023-02-18T12:07:05.721Z,100532.60
2023-02-18T12:09:55.015Z,100539.20
2023-02-18T12:12:46.353Z,100544.40
2023-02-18T12:15:55.858Z,100542.80
2023-02-18T12:18:51.530Z,100543.60
2023-02-18T12:21:43.645Z,100541.60
2023-02-18T12:24:52.432Z,100544.60
2023-02-18T12:27:43.226Z,100539.80
2023-02-18T12:30:33.186Z,100543.20
2023-02-18T12:33:37.296Z,100538.20
2023-02-18T12:36:42.541Z,100546.20
2023-02-18T12:39:57.608Z,100541.80
2023-02-18T12:42:52.568Z,100546.40
2023-02-18T12:46:02.171Z,100550.00
2023-02-18T12:48:37.745Z,100544.20
2023-02-18T12:51:42.835Z,100553.80
2023-02-18T12:54:34.097Z,100559.00
2023-02-18T12:57:30.119Z,100555.20
2023-02-18T13:00:31.883Z,100557.00
2023-02-18T13:03:40.538Z,100573.00
2023-02-18T13:06:38.522Z,100565.80
2023-02-18T13:09:10.770Z,100563.00
2023-02-18T13:11:51.117Z,100567.20
2023-02-18T13:14:26.043Z,100571.60
2023-02-18T13:16:58.680Z,100571.40
2023-02-18T13:20:14.378Z,100573.80
2023-02-18T13:22:44.184Z,100574.80
2023-02-18T13:25:14.568Z,100577.00
2023-02-18T13:27:51.337Z,100575.20
2023-02-18T13:30:30.034Z,100576.20
2023-02-18T13:33:19.760Z,100579.00
2023-02-18T13:36:05.642Z,100578.80
2023-02-18T13:38:51.982Z,100577.00
2023-02-18T13:41:21.738Z,100571.80
2023-02-18T13:43:51.324Z,100568.00
2023-02-18T13:46:26.335Z,100580.20
2023-02-18T13:49:00.588Z,100589.00
2023-02-18T13:51:44.764Z,100592.40
2023-02-18T13:54:29.666Z,100604.60
2023-02-18T13:57:20.633Z,100599.60
2023-02-18T14:00:02.086Z,100606.60
2023-02-18T14:02:36.582Z,100605.80
2023-02-18T14:05:41.697Z,100613.60
2023-02-18T14:08:50.054Z,100617.20
2023-02-18T14:11:20.426Z,100617.00
2023-02-18T14:14:15.684Z,100622.40
2023-02-18T14:17:18.185Z,100620.20
2023-02-18T14:20:28.060Z,100617.00
2023-02-18T14:22:57.807Z,100624.20
2023-02-18T14:25:41.023Z,100624.80
2023-02-18T14:28:34.107Z,100631.40
2023-02-18T14:31:05.401Z,100628.40
2023-02-18T14:33:38.380Z,100627.40
2023-02-18T14:36:36.481Z,100631.00
2023-02-18T14:39:22.822Z,100627.40
2023-02-18T14:42:06.470Z,100638.20
2023-02-18T14:45:10.917Z,100641.20
2023-02-18T14:48:14.496Z,100650.40
2023-02-18T14:50:49.298Z,100647.20
2023-02-18T14:53:25.382Z,100652.00
2023-02-18T14:56:05.360Z,100646.60
2023-02-18T14:58:41.892Z,100645.00
2023-02-18T15:01:31.877Z,100646.00
2023-02-18T15:04:03.412Z,100650.00
2023-02-18T15:06:36.264Z,100641.60
2023-02-18T15:09:18.290Z,100644.60
2023-02-18T15:12:21.095Z,100649.60
2023-02-18T15:14:54.015Z,100657.60
2023-02-18T15:17:29.546Z,100666.40
2023-02-18T15:20:06.099Z,100661.60
2023-02-18T15:22:36.279Z,100664.80
2023-02-18T15:25:05.312Z,100666.00
2023-02-18T15:27:44.508Z,100672.00
2023-02-18T15:30:31.281Z,100670.00
2023-02-18T15:33:02.373Z,100678.00
2023-02-18T15:35:33.531Z,100675.20
2023-02-18T15:38:05.072Z,100674.40
2023-02-18T15:40:37.919Z,100683.60
2023-02-18T15:43:08.306Z,100689.60
2023-02-18T15:45:46.139Z,100691.60
2023-02-18T15:48:47.602Z,100699.60
2023-02-18T15:51:22.314Z,100696.20
2023-02-18T15:53:56.512Z,100712.40
2023-02-18T15:56:33.003Z,100715.40
2023-02-18T15:59:44.460Z,100718.00
2023-02-18T16:02:26.739Z,100719.00
2023-02-18T16:05:05.152Z,100720.40
2023-02-18T16:07:56.229Z,100712.60
2023-02-18T16:10:43.060Z,100725.80
2023-02-18T16:13:17.408Z,100724.40
2023-02-18T16:15:50.547Z,100722.40
2023-02-18T16:18:40.264Z,100713.40
2023-02-18T16:21:38.312Z,100714.40
2023-02-18T16:24:33.651Z,100716.40
2023-02-18T16:27:03.724Z,100720.40
2023-02-18T16:29:41.352Z,100729.20
2023-02-18T16:32:09.294Z,100730.60
2023-02-18T16:34:41.798Z,100734.60
2023-02-18T16:37:40.582Z,100738.00
2023-02-18T16:40:43.057Z,100735.20
2023-02-18T16:43:27.664Z,100735.00
2023-02-18T16:45:58.957Z,100735.80
2023-02-18T16:48:43.461Z,100739.20
2023-02-18T16:51:18.069Z,100752.80
2023-02-18T16:53:46.130Z,100752.60
2023-02-18T16:56:18.473Z,100758.60
2023-02-18T16:58:48.025Z,100754.80
2023-02-18T17:01:27.543Z,100762.60
2023-02-18T17:03:57.687Z,100766.20
2023-02-18T17:06:25.881Z,100767.20
2023-02-18T17:08:55.732Z,100769.60
2023-02-18T17:11:26.992Z,100776.40
2023-02-18T17:14:00.365Z,100776.20
2023-02-18T17:16:30.167Z,100780.80
2023-02-18T17:18:58.283Z,100795.40
2023-02-18T17:21:26.863Z,100793.40
2023-02-18T17:23:54.992Z,100795.80
2023-02-18T17:26:28.032Z,100791.00
2023-02-18T17:29:00.443Z,100802.00
2023-02-18T17:31:36.545Z,100800.80
2023-02-18T17:34:09.204Z,100802.20
2023-02-18T17:36:37.032Z,100804.40
2023-02-18T17:39:14.396Z,100810.80
2023-02-18T17:41:43.000Z,100820.40
2023-02-18T17:44:20.742Z,100826.80
2023-02-18T17:46:50.062Z,100826.00
2023-02-18T17:49:19.079Z,100834.40
2023-02-18T17:51:47.923Z,100834.80
2023-02-18T17:54:22.740Z,100839.00
2023-02-18T17:56:51.436Z,100833.40
2023-02-18T17:59:21.633Z,100843.80
2023-02-18T18:01:49.333Z,100856.80
2023-02-18T18:04:20.109Z,100864.60
2023-02-18T18:06:49.776Z,100869.60
2023-02-18T18:09:18.123Z,100866.00
2023-02-18T18:11:45.966Z,100867.00
2023-02-18T18:14:15.200Z,100872.80
2023-02-18T18:16:44.259Z,100871.80
2023-02-18T18:19:14.979Z,100874.40
2023-02-18T18:21:45.628Z,100871.00
2023-02-18T18:24:13.935Z,100878.60
2023-02-18T18:26:42.429Z,100875.00
2023-02-18T18:29:10.505Z,100875.40
2023-02-18T18:31:41.295Z,100879.60
2023-02-18T18:34:13.793Z,100878.80
2023-02-18T18:36:49.742Z,100888.40
2023-02-18T18:39:17.973Z,100896.20
2023-02-18T18:41:45.630Z,100900.20
2023-02-18T18:44:13.775Z,100900.40
2023-02-18T18:46:42.195Z,100905.00
2023-02-18T18:49:13.112Z,100908.40
2023-02-18T18:51:42.316Z,100909.00
2023-02-18T18:54:12.684Z,100911.40
2023-02-18T18:56:40.599Z,100926.00
2023-02-18T18:59:10.873Z,100931.00
2023-02-18T19:01:40.000Z,100936.60
2023-02-18T19:04:08.305Z,100941.40
2023-02-18T19:06:40.772Z,100937.20
2023-02-18T19:09:10.673Z,100937.00
2023-02-18T19:11:39.276Z,100939.60
2023-02-18T19:14:15.212Z,100938.80
2023-02-18T19:16:43.616Z,100928.80
2023-02-18T19:19:12.467Z,100930.40
2023-02-18T19:21:43.144Z,100926.00
2023-02-18T19:24:12.626Z,100931.80
2023-02-18T19:26:42.754Z,100931.20
2023-02-18T19:29:13.407Z,100935.00
2023-02-18T19:31:45.039Z,100933.60
2023-02-18T19:34:17.149Z,100933.20
2023-02-18T19:36:46.634Z,100929.20
2023-02-18T19:39:14.415Z,100923.20
2023-02-18T19:41:44.115Z,100922.20
2023-02-18T19:44:13.751Z,100927.60
2023-02-18T19:46:42.767Z,100927.00
2023-02-18T19:49:11.713Z,100929.40
2023-02-18T19:51:39.801Z,100926.20
2023-02-18T19:54:14.725Z,100929.60
2023-02-18T19:56:44.400Z,100935.60
2023-02-18T19:59:16.034Z,100933.40
2023-02-18T20:01:46.336Z,100937.20
2023-02-18T20:04:19.464Z,100937.80
2023-02-18T20:06:47.292Z,100939.00
2023-02-18T20:09:15.276Z,100943.80
2023-02-18T20:11:43.114Z,100951.40
2023-02-18T20:14:14.394Z,100956.20
2023-02-18T20:16:44.121Z,100952.40
2023-02-18T20:19:12.117Z,100955.80
2023-02-18T20:21:40.484Z,100960.80
2023-02-18T20:24:11.448Z,100968.40
2023-02-18T20:26:40.052Z,100970.60
2023-02-18T20:29:07.854Z,100971.60
2023-02-18T20:31:38.311Z,100978.80
2023-02-18T20:34:08.232Z,100980.40
2023-02-18T20:36:36.469Z,100984.00
2023-02-18T20:39:15.505Z,100980.40
2023-02-18T20:41:47.316Z,100984.40
2023-02-18T20:44:17.193Z,100981.20
2023-02-18T20:46:46.468Z,100981.00
2023-02-18T20:49:22.761Z,100985.60
2023-02-18T20:51:50.660Z,100990.20
2023-02-18T20:54:23.856Z,100986.60
2023-02-18T20:56:55.776Z,100987.40
2023-02-18T20:59:34.439Z,100990.80
2023-02-18T21:02:05.270Z,100993.60
2023-02-18T21:04:36.746Z,100992.80
2023-02-18T21:07:05.720Z,100996.20
2023-02-18T21:09:33.534Z,100998.20
2023-02-18T21:12:02.085Z,101000.20
2023-02-18T21:14:33.339Z,101002.00
2023-02-18T21:17:04.180Z,101009.80
2023-02-18T21:19:34.010Z,101011.60
2023-02-18T21:22:02.092Z,101011.60
2023-02-18T21:24:32.596Z,101012.00
2023-02-18T21:27:01.812Z,101018.60
2023-02-18T21:29:30.067Z,101018.60
2023-02-18T21:31:58.364Z,101016.40
2023-02-18T21:34:27.112Z,101014.00
2023-02-18T21:36:56.192Z,101018.00
2023-02-18T21:39:23.904Z,101014.00
2023-02-18T21:41:51.634Z,101011.40
2023-02-18T21:44:24.998Z,101014.60
2023-02-18T21:46:58.799Z,101015.80
2023-02-18T21:49:28.028Z,101022.40
2023-02-18T21:51:56.647Z,101024.40
2023-02-18T21:54:44.999Z,101021.80
2023-02-18T21:57:19.823Z,101019.60
2023-02-18T21:59:49.829Z,101021.80
2023-02-18T22:02:30.975Z,101023.40
2023-02-18T22:05:02.638Z,101025.60
2023-02-18T22:07:32.798Z,101025.80
2023-02-18T22:10:00.877Z,101029.20
2023-02-18T22:12:28.876Z,101034.40
2023-02-18T22:14:56.570Z,101034.80
2023-02-18T22:17:26.390Z,101034.60
2023-02-18T22:19:54.392Z,101041.80
2023-02-18T22:22:22.422Z,101045.00
2023-02-18T22:24:51.858Z,101047.80
2023-02-18T22:27:20.229Z,101045.60
2023-02-18T22:29:48.752Z,101045.60
2023-02-18T22:32:16.546Z,101046.20
2023-02-18T22:34:46.160Z,101049.80
2023-02-18T22:37:13.834Z,101051.80
2023-02-18T22:39:41.709Z,101047.80
2023-02-18T22:42:09.960Z,101046.20
2023-02-18T22:44:39.612Z,101048.60
2023-02-18T22:47:07.357Z,101040.20
2023-02-18T22:49:35.858Z,101044.40
2023-02-18T22:52:03.684Z,101045.40
2023-02-18T22:54:31.882Z,101054.80
2023-02-18T22:57:00.452Z,101060.40
2023-02-18T22:59:28.298Z,101059.80
2023-02-18T23:01:58.177Z,101061.80
2023-02-18T23:04:27.268Z,101064.80
2023-02-18T23:06:56.815Z,101062.40
2023-02-18T23:09:26.478Z,101064.40
2023-02-18T23:12:01.666Z,101063.60
2023-02-18T23:14:30.675Z,101069.40
2023-02-18T23:17:14.994Z,101067.60
2023-02-18T23:19:50.711Z,101075.40
2023-02-18T23:22:33.490Z,101076.40
2023-02-18T23:25:02.518Z,101082.40
2023-02-18T23:27:32.121Z,101084.20
2023-02-18T23:30:00.014Z,101090.60
2023-02-18T23:32:28.935Z,101091.60
2023-02-18T23:34:59.606Z,101096.20
2023-02-18T23:37:46.513Z,101096.60
2023-02-18T23:40:14.970Z,101094.40
2023-02-18T23:42:43.140Z,101092.80
2023-02-18T23:45:11.546Z,101085.80
2023-02-18T23:47:40.441Z,101089.60
2023-02-18T23:50:08.856Z,101088.20
2023-02-18T23:52:36.875Z,101092.40
2023-02-18T23:55:05.291Z,101101.40
2023-02-18T23:57:33.269Z,101099.00
